createdAt,value
2022-08-02T00:01:03.945Z,100.00
2022-08-02T00:03:32.690Z,100.00
2022-08-02T00:06:03.105Z,100.00
2022-08-02T00:08:31.874Z,100.00
2022-08-02T00:11:00.282Z,100.00
2022-08-02T00:13:28.707Z,100.00
2022-08-02T00:15:56.849Z,100.00
2022-08-02T00:18:25.280Z,100.00
2022-08-02T00:20:54.047Z,100.00
2022-08-02T00:23:23.788Z,100.00
2022-08-02T00:25:55.053Z,100.00
2022-08-02T00:28:27.795Z,100.00
2022-08-02T00:30:57.114Z,100.00
2022-08-02T00:34:05.211Z,100.00
2022-08-02T00:36:14.513Z,100.00
2022-08-02T00:38:44.526Z,100.00
2022-08-02T00:41:13.935Z,100.00
2022-08-02T00:43:42.582Z,100.00
2022-08-02T00:46:11.094Z,100.00
2022-08-02T00:48:41.442Z,100.00
2022-08-02T00:51:12.003Z,100.00
2022-08-02T00:53:40.335Z,100.00
2022-08-02T00:56:10.244Z,100.00
2022-08-02T00:58:39.117Z,100.00
2022-08-02T01:01:08.455Z,100.00
2022-08-02T01:03:36.846Z,100.00
2022-08-02T01:06:13.399Z,100.00
2022-08-02T01:08:41.897Z,100.00
2022-08-02T01:11:13.866Z,100.00
2022-08-02T01:13:42.501Z,100.00
2022-08-02T01:16:13.208Z,100.00
2022-08-02T01:18:43.237Z,100.00
2022-08-02T01:21:21.319Z,100.00
2022-08-02T01:23:56.403Z,100.00
2022-08-02T01:26:38.772Z,100.00
2022-08-02T01:29:11.681Z,100.00
2022-08-02T01:31:42.145Z,100.00
2022-08-02T01:34:13.369Z,100.00
2022-08-02T01:36:44.234Z,100.00
2022-08-02T01:39:26.820Z,100.00
2022-08-02T01:42:02.058Z,100.00
2022-08-02T01:44:33.215Z,100.00
2022-08-02T01:47:05.585Z,100.00
2022-08-02T01:49:34.718Z,100.00
2022-08-02T01:52:21.950Z,100.00
2022-08-02T01:54:52.204Z,100.00
2022-08-02T01:57:22.902Z,100.00
2022-08-02T01:59:52.863Z,100.00
2022-08-02T02:02:22.328Z,100.00
2022-08-02T02:04:51.501Z,100.00
2022-08-02T02:07:21.414Z,100.00
2022-08-02T02:09:51.037Z,100.00
2022-08-02T02:12:20.558Z,100.00
2022-08-02T02:14:51.705Z,100.00
2022-08-02T02:17:52.667Z,100.00
2022-08-02T02:20:15.158Z,100.00
2022-08-02T02:22:43.455Z,100.00
2022-08-02T02:25:12.872Z,100.00
2022-08-02T02:27:46.846Z,100.00
2022-08-02T02:30:15.762Z,100.00
2022-08-02T02:32:47.016Z,100.00
2022-08-02T02:35:17.765Z,100.00
2022-08-02T02:37:46.940Z,100.00
2022-08-02T02:40:16.709Z,100.00
2022-08-02T02:42:49.223Z,100.00
2022-08-02T02:45:19.571Z,100.00
2022-08-02T02:47:50.691Z,100.00
2022-08-02T02:50:19.419Z,100.00
2022-08-02T02:52:48.697Z,100.00
2022-08-02T02:55:18.687Z,100.00
2022-08-02T02:57:47.685Z,100.00
2022-08-02T03:00:16.898Z,100.00
2022-08-02T03:02:46.341Z,100.00
2022-08-02T03:05:18.419Z,100.00
2022-08-02T03:07:46.704Z,100.00
2022-08-02T03:10:14.829Z,100.00
2022-08-02T03:12:46.247Z,100.00
2022-08-02T03:15:15.374Z,100.00
2022-08-02T03:17:44.570Z,100.00
2022-08-02T03:20:14.328Z,100.00
2022-08-02T03:22:44.861Z,100.00
2022-08-02T03:25:14.240Z,100.00
2022-08-02T03:27:43.330Z,100.00
2022-08-02T03:30:12.813Z,100.00
2022-08-02T03:32:43.029Z,100.00
2022-08-02T03:35:12.522Z,100.00
2022-08-02T03:37:41.621Z,100.00
2022-08-02T03:40:12.807Z,100.00
2022-08-02T03:42:42.555Z,100.00
2022-08-02T03:45:14.001Z,100.00
2022-08-02T03:47:43.227Z,100.00
2022-08-02T03:50:12.971Z,100.00
2022-08-02T03:52:43.126Z,100.00
2022-08-02T03:55:14.084Z,100.00
2022-08-02T03:57:42.916Z,100.00
2022-08-02T04:00:13.294Z,100.00
2022-08-02T04:02:43.109Z,100.00
2022-08-02T04:05:11.700Z,100.00
2022-08-02T04:08:33.817Z,100.00
2022-08-02T04:10:30.354Z,100.00
2022-08-02T04:12:59.360Z,100.00
2022-08-02T04:15:28.287Z,100.00
2022-08-02T04:17:58.042Z,100.00
2022-08-02T04:20:29.658Z,100.00
2022-08-02T04:23:00.357Z,100.00
2022-08-02T04:25:34.317Z,100.00
2022-08-02T04:28:17.123Z,100.00
2022-08-02T04:30:47.942Z,100.00
2022-08-02T04:33:16.915Z,100.00
2022-08-02T04:35:45.715Z,100.00
2022-08-02T04:38:15.907Z,100.00
2022-08-02T04:40:52.485Z,100.00
2022-08-02T04:43:23.274Z,100.00
2022-08-02T04:45:53.789Z,100.00
2022-08-02T04:48:22.602Z,100.00
2022-08-02T04:50:51.734Z,100.00
2022-08-02T04:53:20.717Z,100.00
2022-08-02T04:55:49.513Z,100.00
2022-08-02T04:58:39.278Z,100.00
2022-08-02T05:01:07.711Z,100.00
2022-08-02T05:03:36.285Z,100.00
2022-08-02T05:06:04.438Z,100.00
2022-08-02T05:08:53.249Z,100.00
2022-08-02T05:11:30.003Z,100.00
2022-08-02T05:14:04.815Z,100.00
2022-08-02T05:16:35.463Z,100.00
2022-08-02T05:19:04.476Z,100.00
2022-08-02T05:21:32.939Z,100.00
2022-08-02T05:24:01.550Z,100.00
2022-08-02T05:26:30.267Z,100.00
2022-08-02T05:28:58.723Z,100.00
2022-08-02T05:31:27.167Z,100.00
2022-08-02T05:33:56.929Z,100.00
2022-08-02T05:36:25.451Z,100.00
2022-08-02T05:38:59.722Z,100.00
2022-08-02T05:41:33.679Z,100.00
2022-08-02T05:44:01.923Z,100.00
2022-08-02T05:46:30.335Z,100.00
2022-08-02T05:49:01.663Z,100.00
2022-08-02T05:51:32.481Z,100.00
2022-08-02T05:54:04.451Z,100.00
2022-08-02T05:56:34.561Z,100.00
2022-08-02T05:59:05.544Z,100.00
2022-08-02T06:01:37.338Z,100.00
2022-08-02T06:04:09.175Z,100.00
2022-08-02T06:06:38.638Z,100.00
2022-08-02T06:09:10.611Z,100.00
2022-08-02T06:11:41.450Z,100.00
2022-08-02T06:14:33.023Z,100.00
2022-08-02T06:17:02.516Z,100.00
2022-08-02T06:19:46.919Z,100.00
2022-08-02T06:22:42.029Z,100.00
2022-08-02T06:25:11.698Z,100.00
2022-08-02T06:27:59.969Z,100.00
2022-08-02T06:30:29.658Z,100.00
2022-08-02T06:32:58.632Z,100.00
2022-08-02T06:35:34.925Z,100.00
2022-08-02T06:38:04.287Z,100.00
2022-08-02T06:40:37.393Z,100.00
2022-08-02T06:43:13.507Z,100.00
2022-08-02T06:45:42.762Z,100.00
2022-08-02T06:48:11.487Z,100.00
2022-08-02T06:50:42.348Z,100.00
2022-08-02T06:53:11.830Z,100.00
2022-08-02T06:55:43.647Z,100.00
2022-08-02T06:58:13.129Z,100.00
2022-08-02T07:00:42.138Z,100.00
2022-08-02T07:03:10.982Z,100.00
2022-08-02T07:05:39.298Z,100.00
2022-08-02T07:08:09.254Z,100.00
2022-08-02T07:10:37.545Z,100.00
2022-08-02T07:13:06.176Z,100.00
2022-08-02T07:15:38.410Z,100.00
2022-08-02T07:18:07.245Z,100.00
2022-08-02T07:20:35.892Z,100.00
2022-08-02T07:23:04.234Z,100.00
2022-08-02T07:26:02.581Z,100.00
2022-08-02T07:28:24.724Z,100.00
2022-08-02T07:30:53.908Z,100.00
2022-08-02T07:33:38.833Z,100.00
2022-08-02T07:36:22.470Z,100.00
2022-08-02T07:38:51.439Z,100.00
2022-08-02T07:41:23.635Z,100.00
2022-08-02T07:43:52.060Z,100.00
2022-08-02T07:46:21.025Z,100.00
2022-08-02T07:48:50.070Z,100.00
2022-08-02T07:51:19.050Z,100.00
2022-08-02T07:53:51.214Z,100.00
2022-08-02T07:56:20.415Z,100.00
2022-08-02T07:58:50.483Z,100.00
2022-08-02T08:01:21.576Z,100.00
2022-08-02T08:03:50.844Z,100.00
2022-08-02T08:06:19.544Z,100.00
2022-08-02T08:08:57.852Z,100.00
2022-08-02T08:11:26.642Z,100.00
2022-08-02T08:13:56.384Z,100.00
2022-08-02T08:16:26.719Z,100.00
2022-08-02T08:18:55.495Z,100.00
2022-08-02T08:21:24.337Z,100.00
2022-08-02T08:23:53.015Z,100.00
2022-08-02T08:26:21.502Z,100.00
2022-08-02T08:28:49.819Z,100.00
2022-08-02T08:31:20.826Z,100.00
2022-08-02T08:33:49.548Z,100.00
2022-08-02T08:36:18.047Z,100.00
2022-08-02T08:38:46.651Z,100.00
2022-08-02T08:41:16.947Z,100.00
2022-08-02T08:43:48.042Z,100.00
2022-08-02T08:46:25.796Z,100.00
2022-08-02T08:49:00.532Z,100.00
2022-08-02T08:51:32.219Z,100.00
2022-08-02T08:54:04.023Z,100.00
2022-08-02T08:56:34.241Z,96.16
2022-08-02T08:59:03.405Z,98.03
2022-08-02T09:01:49.369Z,95.66
2022-08-02T09:04:19.397Z,90.16
2022-08-02T09:06:48.057Z,87.63
2022-08-02T09:09:16.641Z,93.89
2022-08-02T09:11:44.798Z,97.99
2022-08-02T09:14:26.599Z,97.22
2022-08-02T09:17:07.287Z,95.14
2022-08-02T09:19:37.173Z,85.17
2022-08-02T09:22:08.080Z,90.45
2022-08-02T09:24:43.589Z,94.33
2022-08-02T09:27:12.982Z,91.78
2022-08-02T09:30:05.994Z,93.83
2022-08-02T09:32:34.811Z,88.21
2022-08-02T09:35:03.355Z,89.78
2022-08-02T09:37:32.512Z,90.79
2022-08-02T09:40:02.996Z,89.34
2022-08-02T09:42:31.537Z,87.14
2022-08-02T09:45:01.766Z,85.64
2022-08-02T09:47:31.467Z,80.81
2022-08-02T09:50:01.572Z,79.72
2022-08-02T09:52:42.926Z,84.97
2022-08-02T09:55:13.633Z,86.62
2022-08-02T09:57:42.090Z,85.12
2022-08-02T10:00:23.269Z,80.27
2022-08-02T10:03:14.849Z,81.08
2022-08-02T10:05:55.933Z,76.25
2022-08-02T10:08:33.681Z,73.08
2022-08-02T10:11:03.945Z,71.19
2022-08-02T10:13:36.143Z,77.23
2022-08-02T10:16:06.491Z,73.89
2022-08-02T10:18:39.259Z,69.00
2022-08-02T10:21:13.371Z,71.42
2022-08-02T10:23:44.110Z,72.80
2022-08-02T10:26:16.023Z,73.10
2022-08-02T10:28:47.235Z,66.93
2022-08-02T10:31:19.650Z,69.02
2022-08-02T10:33:50.428Z,72.02
2022-08-02T10:36:21.564Z,66.29
2022-08-02T10:38:51.484Z,63.90
2022-08-02T10:41:34.924Z,65.52
2022-08-02T10:44:03.513Z,64.43
2022-08-02T10:46:33.670Z,67.42
2022-08-02T10:49:37.547Z,64.87
2022-08-02T10:52:06.804Z,68.63
2022-08-02T10:54:36.565Z,69.48
2022-08-02T10:57:05.799Z,63.51
2022-08-02T10:59:36.306Z,68.22
2022-08-02T11:02:06.178Z,71.42
2022-08-02T11:04:54.506Z,74.21
2022-08-02T11:07:33.325Z,73.76
2022-08-02T11:10:21.825Z,71.01
2022-08-02T11:13:00.186Z,71.92
2022-08-02T11:15:28.892Z,72.99
2022-08-02T11:17:59.158Z,72.08
2022-08-02T11:20:28.501Z,73.60
2022-08-02T11:23:18.761Z,74.60
2022-08-02T11:26:03.710Z,72.48
2022-08-02T11:28:39.571Z,78.29
2022-08-02T11:31:07.929Z,79.35
2022-08-02T11:33:37.364Z,76.22
2022-08-02T11:36:07.266Z,75.12
2022-08-02T11:38:37.118Z,76.05
2022-08-02T11:41:06.093Z,77.38
2022-08-02T11:43:38.809Z,78.73
2022-08-02T11:46:13.688Z,76.83
2022-08-02T11:48:42.504Z,76.69
2022-08-02T11:51:14.531Z,76.45
2022-08-02T11:53:49.508Z,79.80
2022-08-02T11:56:24.878Z,79.76
2022-08-02T11:59:04.200Z,80.01
2022-08-02T12:01:44.882Z,84.59
2022-08-02T12:04:17.320Z,81.38
2022-08-02T12:06:56.232Z,75.08
2022-08-02T12:09:27.597Z,75.29
2022-08-02T12:11:56.490Z,74.36
2022-08-02T12:14:26.884Z,74.69
2022-08-02T12:17:12.721Z,72.38
2022-08-02T12:19:43.029Z,74.45
2022-08-02T12:22:15.094Z,76.85
2022-08-02T12:24:47.461Z,79.18
2022-08-02T12:27:37.976Z,74.45
2022-08-02T12:30:07.940Z,68.47
2022-08-02T12:32:36.768Z,70.87
2022-08-02T12:35:06.927Z,65.83
2022-08-02T12:37:35.756Z,70.49
2022-08-02T12:40:25.533Z,71.73
2022-08-02T12:42:55.864Z,66.81
2022-08-02T12:45:24.758Z,70.31
2022-08-02T12:47:54.405Z,71.87
2022-08-02T12:50:26.160Z,74.86
2022-08-02T12:53:04.758Z,73.19
2022-08-02T12:55:59.211Z,73.64
2022-08-02T12:58:29.579Z,72.28
2022-08-02T13:00:59.962Z,69.39
2022-08-02T13:04:11.577Z,67.28
2022-08-02T13:06:43.293Z,67.39
2022-08-02T13:09:13.959Z,71.38
2022-08-02T13:11:46.817Z,71.26
2022-08-02T13:14:16.093Z,70.92
2022-08-02T13:16:46.258Z,68.25
2022-08-02T13:19:15.842Z,71.35
2022-08-02T13:22:01.147Z,70.11
2022-08-02T13:24:38.156Z,69.52
2022-08-02T13:27:11.898Z,70.85
2022-08-02T13:29:40.220Z,71.14
2022-08-02T13:32:08.871Z,73.92
2022-08-02T13:34:37.919Z,75.68
2022-08-02T13:37:07.705Z,74.86
2022-08-02T13:39:36.039Z,77.10
2022-08-02T13:42:05.877Z,77.24
2022-08-02T13:44:36.559Z,78.18
2022-08-02T13:47:05.830Z,78.88
2022-08-02T13:49:51.483Z,79.38
2022-08-02T13:52:23.362Z,78.71
2022-08-02T13:54:52.320Z,78.02
2022-08-02T13:57:21.081Z,78.22
2022-08-02T13:59:56.788Z,78.18
2022-08-02T14:02:28.275Z,79.64
2022-08-02T14:04:57.106Z,79.24
2022-08-02T14:07:25.763Z,79.80
2022-08-02T14:09:54.287Z,78.33
2022-08-02T14:12:23.153Z,77.63
2022-08-02T14:14:53.029Z,79.31
2022-08-02T14:17:21.353Z,78.26
2022-08-02T14:19:51.055Z,78.57
2022-08-02T14:22:19.200Z,79.97
2022-08-02T14:24:47.922Z,77.74
2022-08-02T14:27:16.844Z,78.96
2022-08-02T14:29:45.249Z,78.49
2022-08-02T14:32:15.368Z,80.85
2022-08-02T14:34:44.477Z,81.07
2022-08-02T14:37:12.785Z,79.15
2022-08-02T14:39:43.269Z,78.98
2022-08-02T14:42:29.343Z,81.91
2022-08-02T14:44:57.576Z,81.89
2022-08-02T14:47:27.669Z,78.87
2022-08-02T14:49:56.474Z,80.32
2022-08-02T14:52:24.758Z,79.52
2022-08-02T14:54:53.089Z,80.29
2022-08-02T14:57:22.019Z,80.57
2022-08-02T14:59:52.326Z,80.57
2022-08-02T15:02:24.142Z,80.79
2022-08-02T15:04:54.263Z,81.45
2022-08-02T15:07:23.765Z,82.23
2022-08-02T15:09:52.011Z,82.30
2022-08-02T15:12:20.671Z,83.14
2022-08-02T15:14:48.865Z,83.29
2022-08-02T15:17:17.346Z,82.84
2022-08-02T15:19:57.609Z,82.48
2022-08-02T15:22:31.094Z,82.79
2022-08-02T15:25:00.492Z,83.44
2022-08-02T15:27:28.814Z,84.04
2022-08-02T15:30:00.936Z,83.91
2022-08-02T15:32:29.496Z,85.11
2022-08-02T15:34:57.676Z,84.91
2022-08-02T15:37:26.237Z,85.18
2022-08-02T15:40:00.954Z,84.37
2022-08-02T15:42:30.668Z,83.54
2022-08-02T15:44:59.667Z,83.39
2022-08-02T15:47:28.761Z,81.91
2022-08-02T15:49:58.423Z,81.62
2022-08-02T15:52:27.198Z,83.09
2022-08-02T15:54:55.575Z,82.29
2022-08-02T15:57:25.378Z,81.53
2022-08-02T15:59:54.457Z,82.68
2022-08-02T16:02:22.999Z,81.54
2022-08-02T16:04:51.467Z,82.36
2022-08-02T16:07:20.546Z,80.80
2022-08-02T16:09:49.039Z,79.11
2022-08-02T16:12:17.621Z,78.63
2022-08-02T16:14:47.792Z,78.37
2022-08-02T16:17:48.976Z,79.57
2022-08-02T16:20:05.564Z,79.88
2022-08-02T16:22:34.225Z,81.09
2022-08-02T16:25:02.279Z,81.37
2022-08-02T16:27:30.559Z,80.12
2022-08-02T16:30:00.466Z,80.29
2022-08-02T16:32:29.067Z,81.03
2022-08-02T16:35:08.192Z,81.34
2022-08-02T16:37:51.781Z,81.85
2022-08-02T16:40:21.612Z,81.26
2022-08-02T16:42:50.684Z,81.78
2022-08-02T16:45:22.569Z,82.29
2022-08-02T16:47:56.414Z,82.47
2022-08-02T16:50:28.752Z,82.40
2022-08-02T16:52:57.976Z,83.17
2022-08-02T16:55:29.045Z,84.01
2022-08-02T16:57:58.917Z,85.09
2022-08-02T17:00:29.136Z,84.73
2022-08-02T17:02:59.593Z,84.70
2022-08-02T17:05:55.871Z,85.46
2022-08-02T17:08:32.212Z,85.51
2022-08-02T17:11:03.362Z,85.73
2022-08-02T17:13:32.343Z,86.49
2022-08-02T17:16:25.854Z,87.56
2022-08-02T17:18:54.099Z,88.42
2022-08-02T17:21:22.616Z,89.10
2022-08-02T17:24:06.118Z,90.14
2022-08-02T17:26:37.546Z,91.34
2022-08-02T17:29:15.597Z,92.01
2022-08-02T17:32:12.532Z,93.32
2022-08-02T17:34:37.195Z,93.54
2022-08-02T17:37:06.447Z,94.32
2022-08-02T17:39:43.231Z,95.04
2022-08-02T17:42:19.546Z,95.95
2022-08-02T17:47:42.109Z,98.21
2022-08-02T17:50:12.560Z,99.51
2022-08-02T17:55:31.222Z,100.00
2022-08-02T18:00:47.629Z,100.00
2022-08-02T18:03:19.674Z,100.00
2022-08-02T18:05:55.210Z,100.00
2022-08-02T18:08:24.123Z,100.00
2022-08-02T18:10:53.060Z,100.00
2022-08-02T18:13:21.272Z,100.00
2022-08-02T18:15:49.903Z,100.00
2022-08-02T18:18:29.185Z,100.00
2022-08-02T18:21:14.498Z,100.00
2022-08-02T18:23:48.689Z,100.00
2022-08-02T18:26:18.107Z,100.00
2022-08-02T18:28:49.662Z,100.00
2022-08-02T18:31:22.573Z,100.00
2022-08-02T18:34:00.062Z,100.00
2022-08-02T18:36:47.419Z,100.00
2022-08-02T18:39:15.961Z,100.00
2022-08-02T18:41:45.259Z,100.00
2022-08-02T18:44:16.789Z,100.00
2022-08-02T18:46:49.381Z,100.00
2022-08-02T18:49:20.953Z,100.00
2022-08-02T18:51:49.427Z,100.00
2022-08-02T18:54:26.735Z,100.00
2022-08-02T18:56:59.510Z,100.00
2022-08-02T18:59:28.055Z,100.00
2022-08-02T19:02:05.158Z,100.00
2022-08-02T19:04:34.825Z,100.00
2022-08-02T19:07:07.543Z,100.00
2022-08-02T19:09:36.614Z,100.00
2022-08-02T19:12:09.511Z,100.00
2022-08-02T19:14:38.797Z,100.00
2022-08-02T19:17:15.957Z,100.00
2022-08-02T19:19:56.702Z,100.00
2022-08-02T19:22:25.537Z,100.00
2022-08-02T19:24:59.986Z,100.00
2022-08-02T19:27:32.683Z,100.00
2022-08-02T19:30:02.532Z,100.00
2022-08-02T19:32:39.624Z,100.00
2022-08-02T19:35:19.726Z,100.00
2022-08-02T19:37:59.585Z,100.00
2022-08-02T19:40:28.984Z,100.00
2022-08-02T19:44:23.831Z,100.00
2022-08-02T19:45:51.183Z,100.00
2022-08-02T19:48:24.036Z,100.00
2022-08-02T19:51:00.507Z,100.00
2022-08-02T19:53:46.711Z,100.00
2022-08-02T19:56:20.903Z,100.00
2022-08-02T19:58:51.568Z,100.00
2022-08-02T20:01:25.310Z,100.00
2022-08-02T20:03:57.117Z,100.00
2022-08-02T20:06:30.009Z,100.00
2022-08-02T20:09:01.141Z,100.00
2022-08-02T20:11:34.609Z,100.00
2022-08-02T20:14:04.074Z,100.00
2022-08-02T20:16:32.945Z,100.00
2022-08-02T20:19:01.763Z,100.00
2022-08-02T20:21:36.244Z,100.00
2022-08-02T20:24:07.008Z,100.00
2022-08-02T20:26:38.218Z,100.00
2022-08-02T20:29:07.694Z,100.00
2022-08-02T20:31:36.456Z,100.00
2022-08-02T20:36:55.949Z,100.00
2022-08-02T20:39:42.875Z,100.00
2022-08-02T20:42:23.921Z,100.00
2022-08-02T20:44:54.747Z,100.00
2022-08-02T20:47:27.476Z,100.00
2022-08-02T20:50:14.244Z,100.00
2022-08-02T20:52:47.823Z,100.00
2022-08-02T20:55:17.130Z,100.00
2022-08-02T20:57:59.902Z,100.00
2022-08-02T21:00:29.066Z,100.00
2022-08-02T21:02:57.259Z,100.00
2022-08-02T21:08:15.589Z,100.00
2022-08-02T21:10:51.725Z,100.00
2022-08-02T21:13:24.238Z,100.00
2022-08-02T21:18:43.046Z,100.00
2022-08-02T21:21:11.500Z,100.00
2022-08-02T21:23:49.033Z,100.00
2022-08-02T21:26:28.406Z,100.00
2022-08-02T21:29:00.781Z,100.00
2022-08-02T21:31:32.069Z,100.00
2022-08-02T21:34:01.944Z,100.00
2022-08-02T21:36:32.569Z,100.00
2022-08-02T21:39:04.997Z,100.00
2022-08-02T21:41:39.374Z,100.00
2022-08-02T21:44:15.864Z,100.00
2022-08-02T21:46:49.229Z,100.00
2022-08-02T21:49:18.434Z,100.00
2022-08-02T21:51:49.575Z,100.00
2022-08-02T21:54:21.666Z,100.00
2022-08-02T21:56:52.161Z,100.00
2022-08-02T21:59:25.622Z,100.00
2022-08-02T22:04:47.816Z,100.00
2022-08-02T22:07:17.238Z,100.00
2022-08-02T22:09:47.029Z,100.00
2022-08-02T22:12:18.359Z,100.00
2022-08-02T22:14:54.088Z,100.00
2022-08-02T22:17:51.574Z,100.00
2022-08-02T22:20:13.706Z,100.00
2022-08-02T22:22:42.198Z,100.00
2022-08-02T22:25:27.154Z,100.00
2022-08-02T22:28:35.533Z,100.00
2022-08-02T22:30:52.462Z,100.00
2022-08-02T22:33:42.341Z,100.00
2022-08-02T22:36:16.352Z,100.00
2022-08-02T22:38:45.815Z,100.00
2022-08-02T22:41:16.519Z,100.00
2022-08-02T22:43:44.761Z,100.00
2022-08-02T22:46:15.404Z,100.00
2022-08-02T22:48:45.294Z,100.00
2022-08-02T22:51:14.551Z,100.00
2022-08-02T22:53:43.520Z,100.00
2022-08-02T22:56:12.582Z,100.00
2022-08-02T22:58:41.050Z,100.00
2022-08-02T22:58:41.286Z,100.00
2022-08-02T22:58:50.219Z,96.73
2022-08-02T22:58:55.697Z,100.00
2022-08-02T22:58:56.965Z,100.00
2022-08-02T22:59:10.425Z,100.00
2022-08-02T22:59:12.093Z,100.00
2022-08-02T22:59:12.330Z,100.00
2022-08-02T23:01:30.502Z,100.00
2022-08-02T23:03:58.616Z,100.00
2022-08-02T23:06:26.730Z,100.00
2022-08-02T23:08:55.328Z,100.00
2022-08-02T23:11:24.304Z,100.00
2022-08-02T23:13:54.149Z,100.00
2022-08-02T23:16:39.881Z,100.00
2022-08-02T23:19:25.846Z,100.00
2022-08-02T23:22:01.348Z,100.00
2022-08-02T23:24:33.370Z,100.00
2022-08-02T23:27:02.145Z,100.00
2022-08-02T23:29:32.089Z,100.00
2022-08-02T23:32:00.731Z,100.00
2022-08-02T23:34:29.284Z,100.00
2022-08-02T23:36:57.562Z,100.00
2022-08-02T23:39:26.240Z,100.00
2022-08-02T23:41:55.610Z,100.00
2022-08-02T23:44:24.436Z,100.00
2022-08-02T23:46:54.669Z,100.00
2022-08-02T23:49:23.563Z,100.00
2022-08-02T23:51:52.701Z,100.00
2022-08-02T23:54:21.405Z,100.00
2022-08-02T23:56:49.687Z,100.00
2022-08-02T23:59:17.858Z,100.00
